Time;durP1;ratioP1;P1;durP2;ratioP2;P2;SDS_P1;SDS_P2;PMS_P1;PMS_P2;Temp;Humidity;BMP_temperature;BMP_pressure;BME280_temperature;BME280_humidity;BME280_pressure;Samples;Min_cycle;Max_cycle;Signal;HPM_P1;HPM_P2
2023/06/02 06:30:03;;;;;;;18.50;3.97;;;17.80;88.30;;;;;;3179456;26;20038;-67
2023/06/02 06:32:31;;;;;;;18.77;3.88;;;17.70;88.40;;;;;;4979058;28;20046;-67
2023/06/02 06:34:59;;;;;;;20.00;3.95;;;17.70;88.50;;;;;;4975864;28;20084;-68
2023/06/02 06:37:29;;;;;;;18.15;3.75;;;17.70;88.60;;;;;;4975622;28;20124;-68
2023/06/02 06:39:57;;;;;;;19.60;4.20;;;17.70;88.60;;;;;;4963385;28;20038;-68
2023/06/02 06:42:24;;;;;;;22.27;3.30;;;17.70;88.60;;;;;;4995066;28;20033;-68
2023/06/02 06:44:52;;;;;;;14.30;3.13;;;17.70;88.70;;;;;;4974450;28;20046;-68
2023/06/02 06:47:19;;;;;;;19.35;3.60;;;17.70;88.70;;;;;;4977866;28;20462;-67
2023/06/02 06:49:47;;;;;;;16.90;3.17;;;17.70;88.70;;;;;;4977122;28;20050;-67
2023/06/02 06:52:14;;;;;;;14.70;3.40;;;17.70;88.90;;;;;;4973261;28;20034;-67
2023/06/02 06:54:41;;;;;;;17.13;3.55;;;17.70;88.80;;;;;;4977099;28;20506;-68
2023/06/02 06:57:10;;;;;;;20.20;4.03;;;17.70;88.80;;;;;;4974224;28;20056;-68
2023/06/02 06:59:39;;;;;;;20.92;3.83;;;17.70;88.80;;;;;;4958385;28;20564;-68
2023/06/02 07:02:06;;;;;;;18.00;3.60;;;17.60;88.90;;;;;;4958105;28;20110;-67
2023/06/02 07:04:34;;;;;;;15.77;3.25;;;17.60;88.90;;;;;;4975194;28;20093;-67
2023/06/02 07:07:01;;;;;;;17.27;3.50;;;17.60;89.10;;;;;;4975364;28;20049;-67
2023/06/02 07:09:29;;;;;;;19.58;3.17;;;17.60;89.10;;;;;;4975386;28;20034;-67
2023/06/02 07:11:56;;;;;;;10.90;3.10;;;17.60;89.10;;;;;;4975267;28;20489;-67
2023/06/02 07:14:24;;;;;;;19.80;4.25;;;17.60;89.20;;;;;;4973886;28;20043;-67
2023/06/02 07:16:54;;;;;;;16.30;3.47;;;17.60;89.30;;;;;;4974754;28;20039;-67
2023/06/02 07:19:21;;;;;;;16.88;4.07;;;17.60;89.30;;;;;;4974416;28;20050;-68
2023/06/02 07:21:49;;;;;;;20.88;4.20;;;17.50;89.30;;;;;;4957551;28;20035;-68
2023/06/02 07:24:17;;;;;;;17.65;4.70;;;17.50;89.40;;;;;;4974725;28;20584;-68
2023/06/02 07:26:44;;;;;;;19.00;4.80;;;17.50;89.50;;;;;;4974926;28;20042;-68
2023/06/02 07:29:12;;;;;;;18.33;4.95;;;17.50;89.50;;;;;;4974658;28;20123;-68
2023/06/02 07:31:39;;;;;;;15.90;3.95;;;17.50;89.60;;;;;;4974702;28;20125;-68
2023/06/02 07:34:07;;;;;;;20.83;4.47;;;17.50;89.60;;;;;;4974581;28;20382;-68
2023/06/02 07:36:34;;;;;;;16.27;4.18;;;17.50;89.60;;;;;;4974641;28;20031;-68
2023/06/02 07:39:02;;;;;;;18.85;4.15;;;17.50;89.70;;;;;;4974389;28;20041;-67
2023/06/02 07:41:29;;;;;;;25.98;4.60;;;17.50;89.70;;;;;;4974668;28;20493;-68
2023/06/02 07:43:58;;;;;;;19.85;4.03;;;17.40;89.80;;;;;;4974425;28;20102;-67
2023/06/02 07:46:26;;;;;;;17.02;3.92;;;17.50;89.80;;;;;;4974342;28;20035;-67
2023/06/02 07:48:53;;;;;;;16.38;3.97;;;17.40;89.80;;;;;;4974462;28;20023;-67
2023/06/02 07:51:20;;;;;;;17.77;3.67;;;17.40;89.90;;;;;;4974457;28;20061;-67
2023/06/02 07:53:48;;;;;;;12.48;3.30;;;17.40;89.90;;;;;;4974382;28;20122;-67
2023/06/02 07:56:15;;;;;;;15.30;3.35;;;17.50;90.00;;;;;;4956821;28;20098;-67
2023/06/02 07:58:45;;;;;;;22.05;4.28;;;17.40;90.00;;;;;;4956963;28;20046;-68
2023/06/02 08:01:12;;;;;;;18.23;4.40;;;17.40;90.00;;;;;;4974094;28;20385;-67
2023/06/02 08:03:40;;;;;;;20.52;4.85;;;17.40;90.00;;;;;;4973941;28;20105;-67
2023/06/02 08:06:08;;;;;;;25.98;4.60;;;17.40;90.10;;;;;;4974408;28;20061;-68
2023/06/02 08:08:35;;;;;;;17.70;3.83;;;17.40;90.20;;;;;;4957153;28;20035;-67
2023/06/02 08:11:03;;;;;;;13.45;3.67;;;17.40;90.20;;;;;;4973931;28;20031;-68
2023/06/02 08:13:30;;;;;;;15.60;3.60;;;17.40;90.30;;;;;;4973860;28;20527;-68
2023/06/02 08:16:00;;;;;;;19.38;4.07;;;17.40;90.30;;;;;;4974082;28;20497;-67
2023/06/02 08:18:27;;;;;;;16.92;3.70;;;17.40;90.30;;;;;;4973798;28;20035;-67
2023/06/02 08:20:55;;;;;;;19.80;4.15;;;17.40;90.30;;;;;;4973996;28;20520;-68
2023/06/02 08:23:22;;;;;;;17.40;4.05;;;17.40;90.40;;;;;;4973518;28;20057;-68
2023/06/02 08:25:50;;;;;;;18.65;4.20;;;17.40;90.40;;;;;;4973256;28;20055;-67
2023/06/02 08:28:24;;;;;;;17.20;4.20;;;17.40;90.50;;;;;;4973611;28;20057;-68
2023/06/02 08:30:52;;;;;;;12.50;3.97;;;17.40;90.60;;;;;;4973261;28;20047;-67
2023/06/02 08:33:21;;;;;;;14.70;3.28;;;17.40;90.60;;;;;;4973659;28;20038;-68
2023/06/02 08:35:50;;;;;;;19.00;3.72;;;17.50;90.60;;;;;;4973463;28;20109;-67
2023/06/02 08:38:19;;;;;;;18.83;4.55;;;17.50;90.60;;;;;;4956738;28;20077;-67
2023/06/02 08:40:47;;;;;;;20.60;4.35;;;17.40;90.60;;;;;;4956628;28;20031;-68
2023/06/02 08:43:15;;;;;;;16.33;3.92;;;17.40;90.70;;;;;;4973526;28;20041;-68
2023/06/02 08:45:49;;;;;;;15.00;3.63;;;17.40;90.70;;;;;;4956214;28;20049;-68
2023/06/02 08:48:18;;;;;;;19.05;3.88;;;17.40;90.80;;;;;;4956437;28;20517;-68
2023/06/02 08:50:52;;;;;;;20.17;4.15;;;17.40;90.80;;;;;;4973343;28;20070;-67
2023/06/02 08:53:19;;;;;;;25.52;4.10;;;17.40;90.80;;;;;;4940146;28;20184;-67
2023/06/02 08:55:50;;;;;;;22.00;4.50;;;17.40;90.90;;;;;;4956177;28;20046;-67
2023/06/02 08:58:16;;;;;;;;;;;17.40;90.90;;;;;;4955250;28;20473;-67
2023/06/02 09:00:44;;;;;;;12.98;3.83;;;17.40;90.90;;;;;;4972713;28;19910;-68
2023/06/02 09:03:14;;;;;;;18.15;4.15;;;17.40;90.90;;;;;;4973123;28;20043;-68
2023/06/02 09:05:43;;;;;;;23.20;4.30;;;17.30;90.90;;;;;;4970970;28;20090;-69
2023/06/02 09:08:14;;;;;;;19.02;4.32;;;17.30;90.90;;;;;;4980023;28;20038;-68
2023/06/02 09:10:43;;;;;;;22.38;6.75;;;17.30;90.90;;;;;;4992611;28;20026;-67
2023/06/02 09:13:27;;;;;;;20.77;6.82;;;17.30;91.00;;;;;;4959981;28;20031;-67
2023/06/02 09:16:04;;;;;;;21.25;5.97;;;17.30;91.10;;;;;;4948373;28;20041;-67
2023/06/02 09:18:31;;;;;;;20.30;6.10;;;17.30;91.10;;;;;;4959643;28;20081;-66
2023/06/02 09:20:59;;;;;;;21.38;5.57;;;17.30;91.10;;;;;;4970671;28;20045;-66
2023/06/02 09:23:48;;;;;;;16.65;4.78;;;17.30;91.20;;;;;;4970558;28;20514;-66
2023/06/02 09:26:25;;;;;;;22.55;6.10;;;17.20;91.20;;;;;;4969962;28;20078;-66
2023/06/02 09:29:07;;;;;;;20.00;5.10;;;17.30;91.20;;;;;;4982064;28;20089;-66
2023/06/02 09:31:52;;;;;;;17.02;4.57;;;17.30;91.20;;;;;;4970257;28;20381;-67
2023/06/02 09:34:21;;;;;;;24.38;5.72;;;17.20;91.30;;;;;;4953490;28;20055;-66
2023/06/02 09:36:51;;;;;;;23.73;5.10;;;17.20;91.30;;;;;;4969817;28;20045;-68
2023/06/02 09:39:41;;;;;;;19.30;4.50;;;17.20;91.30;;;;;;4981259;28;20442;-67
2023/06/02 09:42:12;;;;;;;18.08;4.63;;;17.20;91.30;;;;;;4982639;28;20057;-68
2023/06/02 09:45:01;;;;;;;19.88;4.60;;;17.20;91.40;;;;;;4975274;28;20057;-68
2023/06/02 09:47:28;;;;;;;20.27;5.32;;;17.20;91.40;;;;;;4958096;28;20038;-69
2023/06/02 22:24:26;;;;;;;28.85;11.32;;;15.70;94.70;;;;;;6145705;22;3163386;-66
2023/06/02 22:26:53;;;;;;;27.73;11.35;;;15.70;94.60;;;;;;6208790;23;20340;-66
2023/06/02 22:29:21;;;;;;;29.23;13.02;;;15.70;94.60;;;;;;6210484;23;20012;-67
2023/06/02 22:31:48;;;;;;;27.30;13.13;;;15.70;94.60;;;;;;6210117;23;20076;-65
2023/06/02 22:34:16;;;;;;;26.65;12.32;;;15.70;94.60;;;;;;6213805;23;19997;-67
2023/06/02 22:36:43;;;;;;;29.20;13.40;;;15.70;94.60;;;;;;6211728;23;20016;-67
2023/06/02 22:39:10;;;;;;;27.52;12.35;;;15.70;94.50;;;;;;6212862;23;20088;-66
2023/06/02 22:41:38;;;;;;;27.33;12.75;;;15.70;94.60;;;;;;6214134;23;20004;-67
2023/06/02 22:44:05;;;;;;;29.92;13.48;;;15.70;94.60;;;;;;6214130;23;20382;-67
2023/06/02 22:46:33;;;;;;;28.73;13.25;;;15.70;94.40;;;;;;6213457;23;20076;-69
2023/06/02 22:49:00;;;;;;;29.45;13.52;;;15.70;94.40;;;;;;6213144;23;20008;-67
2023/06/02 22:51:27;;;;;;;30.70;13.80;;;15.70;94.40;;;;;;6213105;23;20076;-68
2023/06/02 22:53:55;;;;;;;28.77;13.75;;;15.70;94.50;;;;;;6213713;23;20004;-67
2023/06/02 22:56:23;;;;;;;31.98;14.65;;;15.70;94.40;;;;;;6214633;23;20223;-67
2023/06/02 22:58:50;;;;;;;32.45;13.82;;;15.70;94.30;;;;;;6214205;23;20031;-67
2023/06/02 23:01:17;;;;;;;33.38;14.82;;;15.70;94.40;;;;;;6214012;23;20001;-67
2023/06/02 23:03:45;;;;;;;32.70;14.60;;;15.70;94.40;;;;;;6214396;23;20001;-67
2023/06/02 23:06:12;;;;;;;36.35;15.13;;;15.80;94.50;;;;;;6213650;23;20331;-67
2023/06/02 23:08:40;;;;;;;37.25;15.98;;;15.70;94.40;;;;;;6214449;23;20008;-67
2023/06/02 23:11:07;;;;;;;45.28;16.10;;;15.80;94.40;;;;;;6213955;23;20000;-67
2023/06/02 23:13:35;;;;;;;37.95;16.35;;;15.80;94.40;;;;;;6213949;23;20309;-67
2023/06/02 23:16:02;;;;;;;41.70;16.80;;;15.80;94.30;;;;;;6214672;23;20005;-67
2023/06/02 23:18:30;;;;;;;38.50;17.17;;;15.70;94.40;;;;;;6213954;23;20012;-67
2023/06/02 23:20:58;;;;;;;42.13;16.77;;;15.80;94.40;;;;;;6214244;23;20000;-67
2023/06/02 23:23:26;;;;;;;41.45;18.05;;;15.70;94.30;;;;;;6214500;23;20432;-67
2023/06/02 23:25:54;;;;;;;41.65;17.08;;;15.80;94.40;;;;;;6237946;23;20023;-67
2023/06/02 23:28:21;;;;;;;35.90;16.27;;;15.80;94.30;;;;;;6243870;23;20072;-67
2023/06/02 23:30:49;;;;;;;38.38;16.88;;;15.80;94.30;;;;;;6244895;23;20075;-68
2023/06/02 23:33:16;;;;;;;30.60;15.50;;;15.90;94.30;;;;;;6244023;23;20007;-67
2023/06/02 23:35:44;;;;;;;36.75;16.33;;;16.00;94.20;;;;;;6244356;23;20004;-67
2023/06/02 23:38:11;;;;;;;32.50;15.52;;;16.00;94.00;;;;;;6244571;23;20015;-67
2023/06/02 23:40:38;;;;;;;32.58;15.25;;;16.00;93.70;;;;;;6244442;23;20004;-67
2023/06/02 23:43:06;;;;;;;31.00;15.43;;;16.00;93.60;;;;;;6244072;23;20004;-67
2023/06/02 23:45:34;;;;;;;31.80;14.77;;;16.00;93.60;;;;;;6244641;23;20003;-68
2023/06/02 23:48:05;;;;;;;37.15;15.35;;;16.10;93.50;;;;;;6217372;23;20351;-67
2023/06/02 23:50:32;;;;;;;28.15;14.25;;;16.00;93.20;;;;;;6243712;23;20031;-67
2023/06/02 23:52:59;;;;;;;28.25;14.23;;;16.00;93.10;;;;;;6244527;23;20076;-67
2023/06/02 23:55:27;;;;;;;27.63;14.77;;;16.00;92.80;;;;;;6244338;23;20028;-67
2023/06/02 23:57:54;;;;;;;25.23;13.23;;;16.00;93.00;;;;;;6243734;23;20035;-68
